Time;durP1;ratioP1;P1;durP2;ratioP2;P2;SDS_P1;SDS_P2;PMS_P1;PMS_P2;Temp;Humidity;BMP_temperature;BMP_pressure;BME280_temperature;BME280_humidity;BME280_pressure;Samples;Min_cycle;Max_cycle;Signal;HPM_P1;HPM_P2
2020/12/08 00:01:45;;;;;;;29.23;17.20;;;2.50;90.70;;;;;;5031336;28;20395;-73
2020/12/08 00:04:11;;;;;;;26.47;15.33;;;2.50;90.60;;;;;;5037556;28;20834;-73
2020/12/08 00:06:36;;;;;;;25.20;15.47;;;2.50;91.00;;;;;;5033540;28;20525;-75
2020/12/08 00:09:02;;;;;;;26.17;16.03;;;2.60;91.10;;;;;;5043269;28;20395;-76
2020/12/08 00:11:27;;;;;;;25.58;16.52;;;2.60;90.50;;;;;;5031389;28;20451;-74
2020/12/08 00:13:53;;;;;;;27.05;16.23;;;2.60;89.40;;;;;;5030399;28;20387;-74
2020/12/08 00:16:18;;;;;;;26.73;15.57;;;2.50;88.90;;;;;;5029919;28;20940;-74
2020/12/08 00:18:44;;;;;;;26.67;15.50;;;2.40;88.80;;;;;;5046938;28;20839;-74
2020/12/08 00:21:10;;;;;;;26.90;16.63;;;2.40;90.00;;;;;;5030699;28;20395;-75
2020/12/08 00:23:35;;;;;;;24.60;15.88;;;2.50;90.30;;;;;;5030840;28;20383;-73
2020/12/08 00:26:01;;;;;;;27.10;16.23;;;2.40;90.70;;;;;;5030447;28;20909;-74
2020/12/08 00:28:26;;;;;;;27.20;16.48;;;2.30;90.90;;;;;;5031106;28;20383;-74
2020/12/08 00:30:52;;;;;;;28.20;17.33;;;2.30;90.30;;;;;;5030445;28;20387;-74
2020/12/08 00:33:18;;;;;;;28.17;17.60;;;2.30;90.30;;;;;;5031220;28;20390;-75
2020/12/08 00:35:44;;;;;;;30.90;17.08;;;2.20;90.80;;;;;;5030112;28;20500;-74
2020/12/08 00:38:09;;;;;;;28.00;15.57;;;2.30;91.70;;;;;;5030331;28;20872;-73
2020/12/08 00:40:35;;;;;;;25.57;15.80;;;2.30;92.20;;;;;;5030515;28;20402;-74
2020/12/08 00:43:00;;;;;;;26.27;15.67;;;2.20;91.90;;;;;;5029793;28;20403;-73
2020/12/08 00:45:26;;;;;;;27.35;16.55;;;2.30;92.70;;;;;;5029929;28;20411;-73
2020/12/08 00:47:52;;;;;;;27.15;16.50;;;2.20;92.80;;;;;;5029948;28;20490;-75
2020/12/08 00:50:17;;;;;;;24.38;15.77;;;2.10;92.40;;;;;;5029963;28;20387;-74
2020/12/08 00:52:43;;;;;;;27.13;16.40;;;2.10;92.90;;;;;;5028999;28;20856;-74
2020/12/08 00:55:08;;;;;;;27.57;16.67;;;2.00;93.20;;;;;;5031734;28;20399;-75
2020/12/08 00:57:34;;;;;;;28.33;16.38;;;2.10;94.10;;;;;;5033040;28;20422;-75
2020/12/08 01:00:00;;;;;;;28.00;16.08;;;2.50;95.60;;;;;;5043015;28;20925;-73
2020/12/08 01:02:26;;;;;;;26.30;15.53;;;2.60;91.10;;;;;;5048314;28;20435;-73
2020/12/08 01:04:51;;;;;;;28.15;16.90;;;2.50;88.90;;;;;;5030123;28;20922;-71
2020/12/08 01:07:17;;;;;;;26.60;16.17;;;2.30;89.30;;;;;;5037795;28;20393;-74
2020/12/08 01:09:44;;;;;;;27.90;16.35;;;2.20;91.50;;;;;;5049784;28;20388;-71
2020/12/08 01:12:09;;;;;;;26.60;16.48;;;2.30;92.60;;;;;;5049938;28;20396;-73
2020/12/08 01:14:35;;;;;;;28.65;16.20;;;2.50;90.80;;;;;;5052004;28;20444;-74
2020/12/08 01:17:01;;;;;;;27.20;15.87;;;2.40;89.40;;;;;;5046123;28;20398;-76
2020/12/08 01:19:27;;;;;;;26.60;16.67;;;2.20;89.30;;;;;;5031443;28;20806;-75
2020/12/08 01:21:53;;;;;;;26.87;16.40;;;2.10;91.30;;;;;;5029903;28;20542;-75
2020/12/08 01:24:19;;;;;;;28.65;16.52;;;2.00;91.00;;;;;;5029404;28;20399;-74
2020/12/08 01:26:45;;;;;;;28.52;16.77;;;1.90;91.40;;;;;;5028006;28;20407;-74
2020/12/08 01:29:11;;;;;;;30.15;17.88;;;1.80;92.50;;;;;;5029540;28;20390;-74
2020/12/08 01:31:37;;;;;;;28.90;17.92;;;1.80;93.60;;;;;;5029378;28;20884;-74
2020/12/08 01:34:02;;;;;;;29.70;17.42;;;2.10;94.60;;;;;;5036460;28;20389;-72
2020/12/08 01:36:28;;;;;;;27.60;16.48;;;2.30;93.30;;;;;;5049276;28;20385;-73
2020/12/08 01:38:53;;;;;;;27.85;16.35;;;2.30;93.90;;;;;;5049444;28;20449;-72
2020/12/08 01:41:19;;;;;;;33.10;18.60;;;2.50;91.70;;;;;;5049305;28;20378;-73
2020/12/08 01:43:54;;;;;;;29.17;18.30;;;2.30;90.70;;;;;;5049123;28;20385;-73
2020/12/08 01:46:23;;;;;;;31.67;18.58;;;2.30;92.30;;;;;;5040793;28;20407;-72
2020/12/08 01:48:49;;;;;;;29.05;17.42;;;2.50;94.10;;;;;;5029259;28;20390;-73
2020/12/08 01:51:17;;;;;;;33.40;19.15;;;2.60;92.90;;;;;;5029506;28;20394;-74
2020/12/08 01:53:44;;;;;;;31.38;18.50;;;2.90;92.60;;;;;;5029066;28;20387;-72
2020/12/08 01:56:12;;;;;;;29.10;17.50;;;3.10;90.30;;;;;;5048865;28;20459;-73
2020/12/08 01:58:37;;;;;;;32.60;17.73;;;3.40;84.80;;;;;;5031275;28;20435;-74
2020/12/08 02:01:03;;;;;;;30.30;18.25;;;3.50;81.60;;;;;;5029258;28;20397;-74
2020/12/08 02:03:29;;;;;;;31.25;18.40;;;3.30;84.30;;;;;;5029363;28;20462;-73
2020/12/08 02:05:55;;;;;;;32.22;18.35;;;3.20;87.40;;;;;;5032952;28;20934;-75
2020/12/08 02:08:31;;;;;;;34.00;19.50;;;3.10;89.30;;;;;;5049868;28;20393;-75
2020/12/08 02:10:57;;;;;;;32.85;18.83;;;3.10;90.30;;;;;;5053194;28;20396;-75
2020/12/08 02:13:23;;;;;;;32.10;18.58;;;3.00;91.60;;;;;;5037787;28;20395;-74
2020/12/08 02:15:49;;;;;;;33.80;18.80;;;3.10;92.50;;;;;;5038080;28;20881;-73
2020/12/08 02:18:14;;;;;;;32.93;19.60;;;3.10;93.20;;;;;;5037350;28;20410;-72
2020/12/08 02:20:43;;;;;;;33.08;19.58;;;3.20;92.80;;;;;;5037855;28;20382;-74
2020/12/08 02:23:09;;;;;;;30.95;19.00;;;3.20;92.70;;;;;;5036248;28;20395;-74
2020/12/08 02:25:35;;;;;;;31.27;18.60;;;3.40;92.60;;;;;;5037140;28;20436;-74
2020/12/08 02:28:01;;;;;;;34.85;20.63;;;3.30;91.10;;;;;;5035257;28;20761;-74
2020/12/08 02:30:26;;;;;;;34.00;19.80;;;3.20;91.10;;;;;;5037076;28;20409;-73
2020/12/08 02:32:52;;;;;;;37.70;22.40;;;3.10;91.60;;;;;;5034007;28;20395;-74
2020/12/08 02:35:18;;;;;;;35.35;20.10;;;3.10;92.20;;;;;;5049823;28;20397;-73
2020/12/08 02:37:43;;;;;;;38.20;22.35;;;3.10;92.50;;;;;;5052765;28;20377;-73
2020/12/08 02:40:09;;;;;;;34.13;19.70;;;3.00;92.80;;;;;;5052363;28;20515;-72
2020/12/08 02:42:34;;;;;;;32.60;18.77;;;3.10;93.70;;;;;;5039845;28;20888;-73
2020/12/08 02:45:00;;;;;;;35.40;19.93;;;3.20;94.50;;;;;;5030860;28;20413;-73
2020/12/08 02:47:25;;;;;;;31.30;19.20;;;3.40;92.60;;;;;;5031079;28;20406;-73
2020/12/08 02:49:54;;;;;;;31.73;18.45;;;3.70;89.90;;;;;;5032405;28;20425;-73
2020/12/08 02:52:20;;;;;;;28.88;18.15;;;4.00;78.60;;;;;;5034613;28;20825;-74
2020/12/08 02:54:46;;;;;;;33.60;18.50;;;4.00;76.60;;;;;;5031692;28;20391;-74
2020/12/08 02:57:11;;;;;;;33.00;19.77;;;3.90;74.30;;;;;;5032020;28;20441;-73
2020/12/08 02:59:37;;;;;;;33.13;19.80;;;3.70;77.40;;;;;;5032321;28;20768;-74
2020/12/08 03:02:02;;;;;;;34.13;20.03;;;3.60;79.80;;;;;;5030637;28;20395;-74
2020/12/08 03:04:28;;;;;;;34.43;20.67;;;3.60;81.70;;;;;;5031865;28;20383;-73
2020/12/08 03:06:54;;;;;;;33.35;20.23;;;3.60;83.60;;;;;;5032105;28;20403;-74
2020/12/08 03:09:19;;;;;;;36.85;21.08;;;3.60;84.60;;;;;;5047972;28;20385;-73
2020/12/08 03:11:45;;;;;;;33.28;20.08;;;3.50;85.80;;;;;;5032877;28;20398;-73
2020/12/08 03:14:11;;;;;;;38.92;22.48;;;3.50;87.20;;;;;;5031803;28;20383;-73
2020/12/08 03:16:36;;;;;;;37.83;21.50;;;3.50;87.90;;;;;;5031142;28;20434;-73
2020/12/08 03:19:02;;;;;;;39.58;23.05;;;3.40;88.30;;;;;;5032090;28;20426;-74
2020/12/08 03:21:35;;;;;;;36.35;21.30;;;3.50;89.10;;;;;;5034285;28;20946;-75
2020/12/08 03:24:01;;;;;;;34.00;20.80;;;3.50;89.70;;;;;;5032199;28;20383;-73
2020/12/08 03:26:27;;;;;;;36.05;20.88;;;3.50;89.80;;;;;;5032169;28;20826;-73
2020/12/08 03:28:53;;;;;;;42.27;23.30;;;3.60;90.00;;;;;;5032123;28;20648;-73
2020/12/08 03:31:18;;;;;;;36.13;21.92;;;3.60;89.00;;;;;;5031729;28;20744;-73
2020/12/08 03:33:44;;;;;;;37.00;21.92;;;3.80;89.10;;;;;;5036490;28;20460;-73
2020/12/08 03:36:11;;;;;;;36.77;21.43;;;4.00;85.80;;;;;;5051560;28;20770;-73
2020/12/08 03:38:37;;;;;;;39.55;23.38;;;4.00;83.20;;;;;;5051345;28;20880;-74
2020/12/08 03:41:02;;;;;;;39.92;22.88;;;4.10;82.30;;;;;;5038566;28;20394;-74
2020/12/08 03:43:28;;;;;;;43.00;23.47;;;4.10;80.60;;;;;;5032923;28;20444;-73
2020/12/08 03:45:54;;;;;;;42.13;23.90;;;4.10;80.20;;;;;;5034430;28;20407;-75
2020/12/08 03:48:19;;;;;;;40.75;23.08;;;4.10;80.80;;;;;;5033706;28;20392;-74
2020/12/08 03:50:45;;;;;;;42.17;24.77;;;4.20;80.20;;;;;;5033353;28;20391;-74
2020/12/08 03:53:10;;;;;;;38.15;22.45;;;4.20;80.00;;;;;;5033816;28;20440;-73
2020/12/08 03:55:36;;;;;;;39.90;23.75;;;4.20;78.60;;;;;;5033560;28;20426;-74
2020/12/08 03:58:01;;;;;;;42.15;23.60;;;4.30;78.30;;;;;;5033654;28;20852;-74
2020/12/08 04:00:27;;;;;;;43.83;24.17;;;4.30;78.50;;;;;;5035995;28;20387;-72
2020/12/08 04:02:52;;;;;;;40.95;23.50;;;4.30;78.70;;;;;;5033391;28;20387;-73
2020/12/08 04:05:18;;;;;;;42.07;23.90;;;4.30;79.20;;;;;;5032270;28;20401;-73
2020/12/08 04:07:46;;;;;;;41.43;23.37;;;4.30;80.20;;;;;;5045489;28;20394;-73
2020/12/08 04:10:11;;;;;;;38.03;23.73;;;4.30;80.80;;;;;;5047539;28;20442;-73
2020/12/08 04:12:37;;;;;;;39.73;24.27;;;4.40;79.70;;;;;;5033315;28;20748;-74
2020/12/08 04:15:02;;;;;;;41.03;24.50;;;4.40;80.00;;;;;;5031707;28;20441;-74
2020/12/08 04:17:28;;;;;;;39.42;23.75;;;4.50;78.30;;;;;;5032149;28;20421;-74
2020/12/08 04:19:53;;;;;;;38.30;23.20;;;4.60;78.40;;;;;;5033776;28;20411;-75
2020/12/08 04:22:19;;;;;;;41.70;24.23;;;4.70;76.70;;;;;;5032216;28;20405;-74
2020/12/08 04:24:44;;;;;;;43.53;24.35;;;4.70;76.30;;;;;;5031002;28;20391;-73
2020/12/08 04:27:10;;;;;;;41.70;23.60;;;4.70;75.90;;;;;;5029199;28;20387;-74
2020/12/08 04:29:35;;;;;;;41.13;24.77;;;4.70;76.60;;;;;;5030301;28;20483;-73
2020/12/08 04:32:01;;;;;;;44.00;24.53;;;4.70;76.70;;;;;;5030365;28;20390;-74
2020/12/08 04:34:27;;;;;;;41.70;22.90;;;4.70;77.90;;;;;;5040621;28;20470;-75
2020/12/08 04:36:52;;;;;;;38.53;23.17;;;4.90;75.80;;;;;;5050251;28;20400;-73
2020/12/08 04:39:18;;;;;;;41.40;24.63;;;4.80;75.60;;;;;;5037668;28;20395;-74
2020/12/08 04:41:44;;;;;;;42.03;24.05;;;4.80;76.10;;;;;;5030386;28;20449;-75
2020/12/08 04:44:10;;;;;;;43.97;24.27;;;4.70;77.00;;;;;;5028651;28;20942;-74
2020/12/08 04:46:37;;;;;;;40.90;24.30;;;4.70;78.20;;;;;;5030345;28;20907;-74
2020/12/08 04:49:03;;;;;;;42.43;24.63;;;4.70;76.60;;;;;;5032318;28;20442;-74
2020/12/08 04:51:28;;;;;;;42.83;25.10;;;4.70;75.90;;;;;;5029736;28;20399;-74
2020/12/08 04:53:54;;;;;;;38.17;23.60;;;4.80;75.90;;;;;;5029883;28;20438;-74
2020/12/08 04:56:20;;;;;;;42.50;24.45;;;4.80;74.50;;;;;;5030075;28;20896;-73
2020/12/08 04:58:45;;;;;;;42.95;24.65;;;4.80;74.40;;;;;;5029750;28;20395;-73
2020/12/08 05:01:27;;;;;;;40.72;24.70;;;4.90;75.30;;;;;;5029958;28;20393;-73
2020/12/08 05:04:02;;;;;;;40.90;23.35;;;5.10;71.00;;;;;;5029685;28;20892;-74
2020/12/08 05:06:29;;;;;;;39.40;23.60;;;5.00;71.50;;;;;;5030881;28;20476;-73
2020/12/08 05:09:05;;;;;;;36.50;22.38;;;5.20;69.20;;;;;;5042993;28;20395;-73
2020/12/08 05:11:30;;;;;;;43.05;24.23;;;5.20;69.10;;;;;;5029817;28;20566;-74
2020/12/08 05:14:00;;;;;;;40.50;22.85;;;5.20;69.80;;;;;;5029572;28;20906;-74
2020/12/08 05:16:26;;;;;;;38.67;23.38;;;5.40;67.50;;;;;;5029848;28;20390;-73
2020/12/08 05:18:52;;;;;;;41.72;23.63;;;5.30;68.30;;;;;;5029289;28;20403;-73
2020/12/08 05:21:17;;;;;;;40.55;23.42;;;5.20;69.40;;;;;;5029676;28;20894;-73
2020/12/08 05:23:44;;;;;;;41.42;23.88;;;5.30;69.60;;;;;;5028209;28;20809;-74
2020/12/08 05:26:11;;;;;;;35.42;22.10;;;5.40;69.00;;;;;;5029031;28;20717;-73
2020/12/08 05:28:37;;;;;;;37.33;22.38;;;5.50;65.50;;;;;;5031444;28;20406;-74
2020/12/08 05:31:03;;;;;;;41.15;22.23;;;5.50;64.90;;;;;;5028755;28;20465;-73
2020/12/08 05:33:28;;;;;;;37.17;22.50;;;5.60;64.60;;;;;;5031164;28;20881;-74
2020/12/08 05:35:57;;;;;;;33.17;20.10;;;5.50;65.70;;;;;;5053985;28;20377;-74
2020/12/08 05:38:37;;;;;;;33.17;20.50;;;5.50;65.30;;;;;;5049987;28;20540;-73
2020/12/08 05:41:05;;;;;;;35.13;21.20;;;5.60;63.20;;;;;;5033315;28;20383;-74
2020/12/08 05:43:39;;;;;;;33.30;20.20;;;5.60;64.40;;;;;;5033254;28;20387;-73
2020/12/08 05:46:06;;;;;;;31.70;19.13;;;5.50;65.70;;;;;;5028749;28;20406;-73
2020/12/08 05:48:33;;;;;;;32.05;19.88;;;5.50;65.30;;;;;;5029184;28;20395;-76
2020/12/08 05:51:02;;;;;;;33.45;20.17;;;5.60;63.30;;;;;;5029345;28;20422;-73
2020/12/08 05:53:28;;;;;;;30.98;19.67;;;5.70;63.30;;;;;;5029493;28;20736;-76
2020/12/08 05:56:07;;;;;;;31.53;19.40;;;5.70;61.90;;;;;;5028467;28;20405;-73
2020/12/08 05:58:36;;;;;;;31.40;20.15;;;5.70;61.20;;;;;;5028932;28;20399;-75
2020/12/08 06:01:06;;;;;;;31.02;18.17;;;5.70;61.10;;;;;;5029278;28;20466;-74
2020/12/08 06:03:32;;;;;;;29.17;18.10;;;5.60;60.40;;;;;;5029055;28;20756;-75
2020/12/08 06:06:09;;;;;;;22.10;14.30;;;5.60;59.70;;;;;;5028715;28;20403;-75
2020/12/08 06:08:45;;;;;;;20.08;14.45;;;5.60;55.80;;;;;;5045234;28;20886;-74
2020/12/08 06:11:11;;;;;;;22.05;13.85;;;5.50;55.70;;;;;;5029033;28;20387;-72
2020/12/08 06:13:41;;;;;;;21.00;13.68;;;5.60;56.40;;;;;;5029021;28;20419;-75
2020/12/08 06:16:18;;;;;;;22.80;14.23;;;5.70;55.50;;;;;;5028941;28;20383;-74
2020/12/08 06:18:44;;;;;;;21.02;14.23;;;5.60;56.20;;;;;;5028513;28;20575;-73
2020/12/08 06:21:24;;;;;;;21.58;14.25;;;5.50;56.50;;;;;;5029102;28;20394;-74
2020/12/08 06:23:55;;;;;;;21.70;15.70;;;5.50;56.90;;;;;;5028702;28;20433;-74
2020/12/08 06:26:25;;;;;;;23.63;16.20;;;5.40;57.70;;;;;;5028709;28;20411;-73
2020/12/08 06:28:52;;;;;;;26.38;17.02;;;5.40;58.80;;;;;;5028420;28;20401;-76
2020/12/08 06:31:18;;;;;;;27.17;17.63;;;5.40;59.70;;;;;;5028573;28;20430;-73
2020/12/08 06:33:56;;;;;;;28.50;17.52;;;5.40;60.20;;;;;;5033039;28;20406;-74
2020/12/08 06:36:23;;;;;;;30.05;18.40;;;5.50;60.40;;;;;;5048408;28;20392;-74
2020/12/08 06:39:05;;;;;;;28.00;17.40;;;5.50;59.70;;;;;;5042159;28;20409;-74
2020/12/08 06:41:32;;;;;;;27.35;16.92;;;5.50;59.30;;;;;;5028855;28;20473;-73
2020/12/08 06:43:58;;;;;;;25.02;16.25;;;5.50;59.10;;;;;;5026690;28;20415;-74
2020/12/08 06:46:24;;;;;;;24.75;15.52;;;5.70;56.60;;;;;;5028300;28;20407;-74
2020/12/08 06:49:07;;;;;;;24.27;15.25;;;5.60;56.80;;;;;;5027678;28;20390;-74
2020/12/08 06:51:35;;;;;;;21.30;15.25;;;5.80;55.10;;;;;;5029460;28;20938;-74
2020/12/08 06:54:12;;;;;;;24.92;15.55;;;5.70;56.20;;;;;;5031755;28;20474;-74
2020/12/08 06:56:38;;;;;;;23.10;14.80;;;5.90;53.10;;;;;;5031694;28;20418;-74
2020/12/08 06:59:03;;;;;;;21.23;13.67;;;5.80;53.30;;;;;;5031734;28;20407;-74
2020/12/08 07:01:29;;;;;;;19.30;12.20;;;5.80;51.90;;;;;;5031063;28;20791;-73
2020/12/08 07:03:55;;;;;;;14.70;10.40;;;5.80;51.00;;;;;;5031993;28;20418;-74
2020/12/08 07:06:21;;;;;;;13.70;10.25;;;5.80;48.90;;;;;;5031761;28;20407;-73
2020/12/08 07:08:50;;;;;;;20.95;12.95;;;5.80;49.40;;;;;;5046194;28;20398;-74
2020/12/08 07:11:17;;;;;;;17.25;12.02;;;5.70;50.40;;;;;;5051538;28;20778;-74
2020/12/08 07:13:56;;;;;;;25.70;18.13;;;5.70;50.70;;;;;;5051573;28;20389;-71
2020/12/08 07:16:23;;;;;;;19.30;13.07;;;5.70;52.20;;;;;;5052375;28;20381;-72
2020/12/08 07:18:49;;;;;;;20.83;13.20;;;5.60;51.80;;;;;;5034868;28;20526;-72
2020/12/08 07:21:15;;;;;;;17.55;12.20;;;5.60;52.50;;;;;;5032782;28;20811;-75
2020/12/08 07:23:40;;;;;;;19.85;13.40;;;5.60;52.90;;;;;;5041074;28;20415;-74
2020/12/08 07:26:09;;;;;;;21.58;13.95;;;5.60;54.10;;;;;;5039920;28;20531;-72
2020/12/08 07:28:34;;;;;;;22.63;15.13;;;5.50;54.80;;;;;;5049719;28;20731;-73
2020/12/08 07:31:00;;;;;;;20.02;14.50;;;5.50;55.70;;;;;;5052320;28;20386;-72
2020/12/08 07:33:34;;;;;;;21.80;13.75;;;5.50;56.20;;;;;;5044667;28;20391;-73
2020/12/08 07:35:59;;;;;;;23.90;14.77;;;5.50;57.30;;;;;;5052452;28;20452;-73
2020/12/08 07:38:25;;;;;;;23.80;15.30;;;5.50;57.50;;;;;;5052485;28;20506;-74
2020/12/08 07:40:50;;;;;;;22.67;14.93;;;5.50;58.70;;;;;;5051127;28;20858;-73
2020/12/08 07:43:16;;;;;;;26.07;17.00;;;5.40;58.90;;;;;;5043244;28;20893;-73
2020/12/08 07:45:44;;;;;;;26.17;16.10;;;5.40;60.60;;;;;;5031816;28;20979;-75
2020/12/08 07:48:19;;;;;;;23.80;16.42;;;5.40;59.10;;;;;;5046942;28;20395;-73
2020/12/08 07:50:45;;;;;;;27.85;16.40;;;5.40;59.50;;;;;;5030906;28;20405;-74
2020/12/08 07:53:12;;;;;;;30.83;16.77;;;5.40;60.10;;;;;;5030634;28;20426;-73
2020/12/08 07:55:41;;;;;;;26.27;16.70;;;5.50;59.60;;;;;;5031140;28;20410;-73
2020/12/08 07:58:07;;;;;;;26.02;17.02;;;5.50;60.20;;;;;;5032348;28;20395;-71
2020/12/08 08:00:33;;;;;;;28.10;16.20;;;5.50;60.70;;;;;;5030664;28;20417;-72
2020/12/08 08:02:58;;;;;;;29.17;17.42;;;5.50;60.30;;;;;;5031694;28;20407;-73
2020/12/08 08:05:24;;;;;;;30.45;17.17;;;5.50;60.80;;;;;;5031683;28;20425;-73
2020/12/08 08:07:49;;;;;;;27.47;16.40;;;5.50;60.70;;;;;;5043221;28;20425;-73
2020/12/08 08:10:15;;;;;;;25.13;17.07;;;5.50;59.40;;;;;;5042649;28;20398;-73
2020/12/08 08:12:41;;;;;;;26.10;16.90;;;5.70;57.30;;;;;;5030251;28;20883;-72
2020/12/08 08:15:07;;;;;;;26.02;16.08;;;6.10;55.50;;;;;;5030579;28;20395;-74
2020/12/08 08:17:33;;;;;;;27.33;17.52;;;6.00;54.20;;;;;;5030556;28;21162;-72
2020/12/08 08:19:59;;;;;;;25.02;16.48;;;5.80;55.30;;;;;;5030611;28;20407;-76
2020/12/08 08:22:24;;;;;;;26.10;16.37;;;5.90;55.80;;;;;;5042818;28;20435;-74
2020/12/08 08:24:50;;;;;;;27.87;16.70;;;5.80;56.10;;;;;;5036724;28;20772;-73
2020/12/08 08:27:16;;;;;;;25.20;16.00;;;5.80;56.10;;;;;;5030168;28;20395;-74
2020/12/08 08:29:41;;;;;;;27.57;17.37;;;5.90;55.20;;;;;;5035964;28;20908;-73
2020/12/08 08:32:07;;;;;;;25.10;16.80;;;5.80;55.50;;;;;;5029891;28;20399;-76
2020/12/08 08:34:32;;;;;;;29.23;17.05;;;5.80;56.40;;;;;;5040357;28;20393;-74
2020/12/08 08:36:58;;;;;;;26.45;16.27;;;5.80;55.80;;;;;;5028807;28;20403;-73
2020/12/08 08:39:24;;;;;;;25.08;16.83;;;5.80;55.70;;;;;;5029739;28;20476;-73
2020/12/08 08:41:52;;;;;;;28.00;16.77;;;5.90;55.30;;;;;;5029782;28;20391;-75
2020/12/08 08:44:18;;;;;;;27.73;16.92;;;5.90;55.40;;;;;;5029618;28;20790;-73
2020/12/08 08:46:44;;;;;;;26.48;16.95;;;5.90;55.30;;;;;;5047073;28;20499;-72
2020/12/08 08:49:14;;;;;;;32.57;17.50;;;5.90;55.70;;;;;;5038288;28;20398;-74
2020/12/08 08:51:44;;;;;;;26.50;17.55;;;5.80;56.80;;;;;;5029866;28;20399;-72
2020/12/08 08:54:11;;;;;;;24.55;16.00;;;5.90;57.80;;;;;;5027704;28;20398;-74
2020/12/08 08:56:37;;;;;;;26.02;17.48;;;6.10;55.80;;;;;;5029884;28;20407;-74
2020/12/08 08:59:03;;;;;;;26.63;16.47;;;6.00;56.00;;;;;;5029563;28;20453;-74
2020/12/08 09:01:28;;;;;;;29.27;16.85;;;6.00;57.50;;;;;;5029691;28;20485;-73
2020/12/08 09:03:54;;;;;;;25.33;16.30;;;5.90;57.20;;;;;;5029410;28;20480;-74
2020/12/08 09:06:20;;;;;;;26.77;17.87;;;5.90;58.10;;;;;;5030350;28;20403;-74
2020/12/08 09:08:45;;;;;;;28.40;19.40;;;5.90;57.70;;;;;;5040852;28;20389;-74
2020/12/08 09:11:11;;;;;;;25.17;16.85;;;5.90;58.10;;;;;;5031833;28;20620;-74
2020/12/08 09:13:37;;;;;;;25.02;16.92;;;5.90;57.70;;;;;;5027168;28;20395;-73
2020/12/08 09:16:03;;;;;;;28.93;18.20;;;6.00;58.10;;;;;;5029544;28;20379;-74
2020/12/08 09:18:29;;;;;;;26.30;16.52;;;6.00;57.70;;;;;;5029174;28;20407;-75
2020/12/08 09:20:54;;;;;;;30.97;19.90;;;6.00;57.60;;;;;;5034893;28;20458;-74
2020/12/08 09:23:23;;;;;;;26.93;17.47;;;6.00;57.90;;;;;;5029161;28;20471;-75
2020/12/08 09:25:49;;;;;;;27.48;16.77;;;6.10;57.70;;;;;;5028540;28;20411;-73
2020/12/08 09:28:15;;;;;;;30.23;17.65;;;6.30;56.00;;;;;;5029164;28;20470;-75
2020/12/08 09:30:41;;;;;;;27.00;17.40;;;6.20;56.20;;;;;;5028393;28;20541;-75
2020/12/08 09:33:07;;;;;;;26.73;16.95;;;6.20;57.40;;;;;;5028466;28;20391;-74
2020/12/08 09:35:32;;;;;;;23.98;15.82;;;6.20;55.00;;;;;;5046214;28;20857;-74
2020/12/08 09:37:58;;;;;;;22.58;15.80;;;6.20;55.80;;;;;;5029051;28;20399;-73
2020/12/08 09:40:23;;;;;;;23.67;15.48;;;6.50;53.70;;;;;;5028869;28;20398;-74
2020/12/08 09:42:49;;;;;;;21.30;15.07;;;6.60;52.80;;;;;;5028711;28;20828;-74
2020/12/08 09:45:15;;;;;;;29.43;15.60;;;6.60;52.00;;;;;;5028692;28;20406;-74
2020/12/08 09:47:40;;;;;;;29.70;17.20;;;6.50;52.90;;;;;;5041569;28;20396;-74
2020/12/08 09:50:09;;;;;;;25.53;16.40;;;6.40;53.20;;;;;;5032960;28;20795;-74
2020/12/08 09:52:35;;;;;;;24.92;15.75;;;6.40;52.70;;;;;;5029307;28;20401;-75
2020/12/08 09:55:01;;;;;;;27.25;16.63;;;6.40;51.90;;;;;;5028342;28;20398;-75
2020/12/08 09:57:26;;;;;;;23.67;15.67;;;6.30;52.70;;;;;;5027647;28;20410;-72
2020/12/08 09:59:52;;;;;;;23.63;15.43;;;6.40;52.80;;;;;;5028958;28;20417;-73
2020/12/08 10:02:19;;;;;;;22.75;15.43;;;6.50;50.30;;;;;;5032124;28;20426;-74
2020/12/08 10:04:45;;;;;;;23.70;15.70;;;6.60;51.50;;;;;;5030438;28;20375;-72
2020/12/08 10:07:14;;;;;;;24.27;15.80;;;6.50;52.00;;;;;;5035641;28;20813;-73
2020/12/08 10:09:41;;;;;;;30.83;16.55;;;6.60;52.40;;;;;;5044414;28;20426;-74
2020/12/08 10:12:07;;;;;;;31.13;17.08;;;6.60;51.50;;;;;;5028588;28;20418;-74
2020/12/08 10:14:33;;;;;;;26.92;16.38;;;6.70;50.60;;;;;;5028529;28;20896;-74
2020/12/08 10:16:58;;;;;;;25.80;15.85;;;6.70;48.80;;;;;;5027613;28;20403;-74
2020/12/08 10:19:24;;;;;;;24.23;14.77;;;6.90;48.70;;;;;;5028650;28;20484;-74
2020/12/08 10:21:53;;;;;;;26.70;15.47;;;7.10;47.20;;;;;;5028362;28;20395;-74
2020/12/08 10:24:18;;;;;;;25.10;15.07;;;7.10;46.20;;;;;;5029136;28;20981;-73
2020/12/08 10:26:45;;;;;;;29.70;17.27;;;7.20;45.90;;;;;;5035025;28;20422;-74
2020/12/08 10:29:10;;;;;;;28.15;14.80;;;7.30;45.70;;;;;;5037063;28;20748;-74
2020/12/08 10:31:36;;;;;;;24.67;14.70;;;7.30;47.10;;;;;;5039361;28;20393;-73
2020/12/08 10:34:01;;;;;;;19.63;13.73;;;7.30;45.00;;;;;;5055298;28;20531;-74
2020/12/08 10:36:27;;;;;;;24.27;14.80;;;7.30;45.60;;;;;;5046380;28;20756;-74
2020/12/08 10:38:52;;;;;;;31.43;13.93;;;7.50;45.10;;;;;;5034928;28;20422;-74
2020/12/08 10:41:22;;;;;;;24.10;15.00;;;7.50;44.40;;;;;;5035258;28;20391;-73
2020/12/08 10:43:48;;;;;;;24.85;15.40;;;7.40;44.50;;;;;;5031561;28;20444;-74
2020/12/08 10:46:14;;;;;;;31.13;17.50;;;7.50;43.40;;;;;;5031994;28;20444;-72
2020/12/08 10:48:39;;;;;;;37.00;15.20;;;7.50;43.10;;;;;;5032331;28;20949;-73
2020/12/08 10:51:05;;;;;;;25.00;13.40;;;7.60;42.00;;;;;;5052056;28;20382;-73
2020/12/08 10:53:30;;;;;;;29.20;14.87;;;7.50;41.70;;;;;;5050644;28;20399;-74
2020/12/08 10:55:56;;;;;;;22.80;12.70;;;7.70;42.50;;;;;;5050979;28;20795;-73
2020/12/08 10:58:22;;;;;;;22.83;13.60;;;8.00;41.00;;;;;;5030947;28;20580;-74
2020/12/08 11:00:47;;;;;;;23.17;13.95;;;8.00;39.60;;;;;;5031929;28;20509;-73
2020/12/08 11:03:13;;;;;;;23.37;11.37;;;8.10;39.50;;;;;;5030502;28;20391;-74
2020/12/08 11:05:40;;;;;;;20.73;11.23;;;8.10;38.10;;;;;;5031449;28;20411;-74
2020/12/08 11:08:06;;;;;;;19.20;10.38;;;8.10;37.50;;;;;;5037597;28;20397;-73
2020/12/08 11:10:31;;;;;;;23.15;10.70;;;8.10;35.50;;;;;;5050552;28;20451;-73
2020/12/08 11:12:57;;;;;;;17.77;10.55;;;8.10;35.80;;;;;;5046861;28;20387;-75
2020/12/08 11:15:22;;;;;;;19.87;9.93;;;8.40;34.90;;;;;;5030119;28;20486;-75
2020/12/08 11:17:48;;;;;;;14.63;9.10;;;8.30;34.10;;;;;;5031411;28;20398;-73
2020/12/08 11:20:14;;;;;;;24.40;10.50;;;8.40;32.10;;;;;;5031711;28;20402;-73
2020/12/08 11:22:40;;;;;;;17.27;9.90;;;8.30;33.70;;;;;;5031399;28;20394;-75
2020/12/08 11:25:05;;;;;;;23.93;10.40;;;8.20;34.60;;;;;;5031365;28;20402;-74
2020/12/08 11:27:31;;;;;;;22.63;10.70;;;8.10;34.20;;;;;;5030764;28;20387;-75
2020/12/08 11:29:57;;;;;;;16.47;10.43;;;8.00;35.10;;;;;;5031256;28;20395;-74
2020/12/08 11:32:22;;;;;;;24.25;10.38;;;7.90;32.70;;;;;;5031415;28;20744;-75
2020/12/08 11:34:48;;;;;;;22.08;9.60;;;7.80;33.40;;;;;;5044791;28;20451;-74
2020/12/08 11:37:14;;;;;;;15.05;9.55;;;7.70;35.90;;;;;;5040376;28;20407;-74
2020/12/08 11:39:40;;;;;;;24.65;9.90;;;7.60;34.10;;;;;;5042053;28;20414;-73
2020/12/08 11:42:08;;;;;;;18.27;9.07;;;7.70;34.90;;;;;;5031125;28;20403;-73
2020/12/08 11:44:34;;;;;;;14.27;9.68;;;7.60;37.00;;;;;;5031006;28;20474;-74
2020/12/08 11:47:00;;;;;;;20.75;10.77;;;7.60;36.80;;;;;;5037434;28;20409;-73
2020/12/08 11:49:26;;;;;;;19.00;10.40;;;7.70;36.00;;;;;;5049367;28;20378;-73
2020/12/08 11:51:51;;;;;;;24.95;10.90;;;7.70;35.40;;;;;;5033282;28;20394;-74
2020/12/08 11:54:17;;;;;;;22.00;9.75;;;7.70;35.10;;;;;;5037459;28;20420;-74
2020/12/08 11:56:43;;;;;;;16.67;10.10;;;7.70;34.40;;;;;;5040213;28;20391;-74
2020/12/08 11:59:09;;;;;;;13.60;9.73;;;7.80;34.60;;;;;;5030465;28;20699;-74
2020/12/08 12:01:34;;;;;;;20.85;10.93;;;7.90;33.60;;;;;;5031290;28;20405;-74
2020/12/08 12:04:00;;;;;;;20.53;11.33;;;7.80;34.20;;;;;;5030264;28;20397;-73
2020/12/08 12:06:25;;;;;;;13.80;9.77;;;7.80;36.60;;;;;;5030674;28;20407;-73
2020/12/08 12:08:51;;;;;;;21.53;10.70;;;7.90;36.10;;;;;;5041085;28;20487;-74
2020/12/08 12:11:17;;;;;;;23.17;10.70;;;8.10;35.10;;;;;;5033081;28;20414;-74
2020/12/08 12:13:42;;;;;;;16.57;9.73;;;8.40;33.10;;;;;;5030821;28;20402;-76
2020/12/08 12:16:08;;;;;;;17.93;10.03;;;8.40;32.60;;;;;;5030866;28;20390;-74
2020/12/08 12:18:33;;;;;;;19.73;11.70;;;8.40;31.10;;;;;;5030762;28;20411;-74
2020/12/08 12:20:59;;;;;;;18.73;9.93;;;8.30;33.10;;;;;;5030919;28;20383;-74
2020/12/08 12:23:25;;;;;;;14.93;9.10;;;8.20;33.10;;;;;;5031639;28;20395;-74
2020/12/08 12:25:50;;;;;;;13.63;9.50;;;8.20;30.90;;;;;;5032071;28;20896;-74
2020/12/08 12:28:16;;;;;;;22.10;9.90;;;8.00;31.10;;;;;;5040707;28;20397;-75
2020/12/08 12:30:41;;;;;;;19.07;10.53;;;7.90;31.40;;;;;;5051732;28;20381;-74
2020/12/08 12:33:08;;;;;;;12.40;8.77;;;7.90;33.10;;;;;;5037242;28;20453;-74
2020/12/08 12:35:34;;;;;;;15.93;8.52;;;7.90;31.80;;;;;;5051070;28;20724;-75